Time;durP1;ratioP1;P1;durP2;ratioP2;P2;SDS_P1;SDS_P2;PMS_P1;PMS_P2;Temp;Humidity;BMP_temperature;BMP_pressure;BME280_temperature;BME280_humidity;BME280_pressure;Samples;Min_cycle;Max_cycle;Signal;HPM_P1;HPM_P2
2021/05/15 00:00:53;;;;;;;3.23;2.37;;;;;;;;;;4906737;29;20204;-91
2021/05/15 00:03:58;;;;;;;3.87;1.90;;;;;;;;;;4895996;29;20216;-91
2021/05/15 00:07:03;;;;;;;3.93;2.10;;;;;;;;;;4895747;29;20648;-91
2021/05/15 00:10:08;;;;;;;5.10;1.90;;;;;;;;;;4894735;29;20220;-92
2021/05/15 00:13:12;;;;;;;5.87;2.20;;;;;;;;;;4895784;29;20301;-93
2021/05/15 00:16:18;;;;;;;6.77;1.83;;;;;;;;;;4897108;29;20208;-92
2021/05/15 00:19:23;;;;;;;2.83;1.70;;;;;;;;;;4896776;29;20253;-89
2021/05/15 00:22:28;;;;;;;2.93;1.77;;;;;;;;;;4896693;29;20203;-89
2021/05/15 00:25:32;;;;;;;4.10;1.97;;;;;;;;;;4894330;29;20243;-90
2021/05/15 00:28:37;;;;;;;6.90;1.90;;;;;;;;;;4902510;29;20199;-91
2021/05/15 00:31:42;;;;;;;4.40;2.30;;;;;;;;;;4906553;29;20566;-90
2021/05/15 00:34:48;;;;;;;4.73;2.00;;;;;;;;;;4895082;29;20204;-91
2021/05/15 00:37:52;;;;;;;5.37;1.80;;;;;;;;;;4910896;29;20188;-91
2021/05/15 00:40:57;;;;;;;4.13;2.40;;;;;;;;;;4898168;29;20191;-91
2021/05/15 00:44:13;;;;;;;4.43;2.57;;;;;;;;;;4897068;29;20223;-90
2021/05/15 00:47:18;;;;;;;7.43;2.23;;;;;;;;;;4912207;29;20188;-90
2021/05/15 00:50:24;;;;;;;3.77;2.07;;;;;;;;;;4907164;29;20192;-91
2021/05/15 00:53:29;;;;;;;4.17;2.00;;;;;;;;;;4897773;29;20688;-91
2021/05/15 00:56:34;;;;;;;6.53;1.73;;;;;;;;;;4897953;29;20204;-90
2021/05/15 00:59:39;;;;;;;2.83;1.90;;;;;;;;;;4896853;29;20667;-91
2021/05/15 01:02:44;;;;;;;5.60;1.70;;;;;;;;;;4895265;29;20228;-90
2021/05/15 01:05:49;;;;;;;3.30;1.70;;;;;;;;;;4896581;29;20230;-88
2021/05/15 01:08:54;;;;;;;5.47;1.80;;;;;;;;;;4904877;29;20196;-90
2021/05/15 01:11:58;;;;;;;6.23;2.10;;;;;;;;;;4894231;29;20228;-90
2021/05/15 01:15:02;;;;;;;14.37;2.67;;;;;;;;;;4894329;29;20196;-92
2021/05/15 01:18:07;;;;;;;8.43;1.80;;;;;;;;;;4893197;29;20207;-91
2021/05/15 01:21:13;;;;;;;6.23;2.10;;;;;;;;;;4892694;29;20200;-91
2021/05/15 01:24:18;;;;;;;8.23;2.30;;;;;;;;;;4894217;29;20208;-92
2021/05/15 01:27:22;;;;;;;2.50;1.67;;;;;;;;;;4895630;29;20216;-90
2021/05/15 01:30:27;;;;;;;7.43;2.07;;;;;;;;;;4896060;29;20205;-90
2021/05/15 01:33:32;;;;;;;5.47;1.90;;;;;;;;;;4894945;29;20236;-89
2021/05/15 01:36:41;;;;;;;4.53;1.97;;;;;;;;;;4898157;29;20200;-90
2021/05/15 01:39:47;;;;;;;3.73;1.43;;;;;;;;;;4909543;29;20604;-91
2021/05/15 01:42:51;;;;;;;5.67;2.00;;;;;;;;;;4898467;29;20265;-91
2021/05/15 01:45:56;;;;;;;5.90;1.73;;;;;;;;;;4899748;29;20224;-91
2021/05/15 01:49:02;;;;;;;4.80;2.00;;;;;;;;;;4911875;29;20200;-90
2021/05/15 01:52:07;;;;;;;7.70;1.83;;;;;;;;;;4901046;29;20333;-90
2021/05/15 01:55:15;;;;;;;8.47;2.00;;;;;;;;;;4898718;29;20201;-91
2021/05/15 01:58:19;;;;;;;2.97;1.70;;;;;;;;;;4909861;29;20224;-91
2021/05/15 02:01:24;;;;;;;5.80;2.10;;;;;;;;;;4900346;29;20218;-90
2021/05/15 02:04:29;;;;;;;3.90;1.83;;;;;;;;;;4899595;29;20249;-92
2021/05/15 02:07:35;;;;;;;3.97;1.93;;;;;;;;;;4896878;29;20232;-91
2021/05/15 02:10:39;;;;;;;3.70;1.80;;;;;;;;;;4896676;29;20232;-91
2021/05/15 02:13:45;;;;;;;3.03;1.87;;;;;;;;;;4896569;29;20209;-89
2021/05/15 02:16:49;;;;;;;3.73;1.70;;;;;;;;;;4896685;29;20196;-92
2021/05/15 02:19:53;;;;;;;5.83;2.13;;;;;;;;;;4908929;29;20196;-91
2021/05/15 02:22:59;;;;;;;11.80;2.03;;;;;;;;;;4896944;29;20233;-91
2021/05/15 02:26:04;;;;;;;6.30;2.00;;;;;;;;;;4896483;29;20208;-90
2021/05/15 02:29:09;;;;;;;5.90;1.97;;;;;;;;;;4907875;29;20331;-91
2021/05/15 02:32:13;;;;;;;5.57;2.00;;;;;;;;;;4907662;29;20254;-90
2021/05/15 02:35:18;;;;;;;4.13;1.80;;;;;;;;;;4894583;29;20242;-90
2021/05/15 02:38:23;;;;;;;2.60;1.80;;;;;;;;;;4896979;29;20220;-90
2021/05/15 02:41:28;;;;;;;4.07;2.07;;;;;;;;;;4897223;29;20197;-93
2021/05/15 02:44:32;;;;;;;3.17;1.80;;;;;;;;;;4907300;29;20220;-90
2021/05/15 02:47:37;;;;;;;3.30;2.10;;;;;;;;;;4896035;29;20200;-89
2021/05/15 02:50:42;;;;;;;2.40;1.80;;;;;;;;;;4896517;29;20271;-92
2021/05/15 02:53:47;;;;;;;4.83;2.10;;;;;;;;;;4895689;29;20336;-91
2021/05/15 02:56:51;;;;;;;5.60;2.20;;;;;;;;;;4896962;29;20213;-92
2021/05/15 02:59:56;;;;;;;3.80;2.20;;;;;;;;;;4898612;29;20196;-90
2021/05/15 03:03:00;;;;;;;7.00;2.30;;;;;;;;;;4898041;29;20247;-91
2021/05/15 03:06:05;;;;;;;4.03;2.27;;;;;;;;;;4895977;29;20236;-91
2021/05/15 03:09:10;;;;;;;4.10;2.13;;;;;;;;;;4896115;29;20972;-91
2021/05/15 03:12:15;;;;;;;4.00;2.10;;;;;;;;;;4896684;29;20196;-91
2021/05/15 03:15:20;;;;;;;3.17;1.97;;;;;;;;;;4897344;29;20217;-92
2021/05/15 03:18:25;;;;;;;4.93;2.40;;;;;;;;;;4895621;29;20209;-92
2021/05/15 03:21:30;;;;;;;7.37;2.67;;;;;;;;;;4897077;29;20214;-90
2021/05/15 03:24:35;;;;;;;5.27;2.20;;;;;;;;;;4895912;29;20224;-91
2021/05/15 03:27:40;;;;;;;6.00;2.37;;;;;;;;;;4906629;29;20197;-91
2021/05/15 03:30:44;;;;;;;3.77;2.50;;;;;;;;;;4905869;29;20265;-91
2021/05/15 03:33:49;;;;;;;6.73;2.30;;;;;;;;;;4906455;29;20220;-91
2021/05/15 03:36:54;;;;;;;3.40;2.00;;;;;;;;;;4895242;29;20220;-91
2021/05/15 03:40:00;;;;;;;4.00;2.30;;;;;;;;;;4895636;29;20192;-91
2021/05/15 03:43:04;;;;;;;6.83;2.50;;;;;;;;;;4897077;29;20200;-91
2021/05/15 03:46:09;;;;;;;5.03;2.20;;;;;;;;;;4898005;29;20225;-90
2021/05/15 03:49:14;;;;;;;6.87;2.57;;;;;;;;;;4898124;29;20240;-91
2021/05/15 03:52:18;;;;;;;5.77;2.10;;;;;;;;;;4897057;29;20244;-91
2021/05/15 03:55:24;;;;;;;5.10;2.73;;;;;;;;;;4896980;29;20672;-92
2021/05/15 03:58:29;;;;;;;6.77;2.67;;;;;;;;;;4894639;29;20576;-91
2021/05/15 04:01:39;;;;;;;3.23;2.30;;;;;;;;;;4895648;29;20192;-91
2021/05/15 04:04:44;;;;;;;6.87;2.50;;;;;;;;;;4906005;29;20217;-92
2021/05/15 04:07:48;;;;;;;4.87;2.50;;;;;;;;;;4907236;29;20262;-91
2021/05/15 04:10:54;;;;;;;6.80;2.50;;;;;;;;;;4896486;29;20226;-91
2021/05/15 04:14:01;;;;;;;7.40;2.63;;;;;;;;;;4908063;29;20204;-89
2021/05/15 04:17:21;;;;;;;6.40;2.60;;;;;;;;;;4895998;29;20197;-91
2021/05/15 04:20:25;;;;;;;4.37;2.37;;;;;;;;;;4896085;29;20209;-92
2021/05/15 04:23:30;;;;;;;6.37;2.07;;;;;;;;;;4896063;29;20203;-91
2021/05/15 04:26:36;;;;;;;4.77;2.53;;;;;;;;;;4895533;29;20192;-90
2021/05/15 04:29:41;;;;;;;3.83;2.03;;;;;;;;;;4895566;29;20196;-89
2021/05/15 04:32:46;;;;;;;5.37;2.33;;;;;;;;;;4906278;29;20240;-90
2021/05/15 04:35:51;;;;;;;6.20;2.67;;;;;;;;;;4896167;29;20193;-90
2021/05/15 04:38:55;;;;;;;5.33;2.70;;;;;;;;;;4896120;29;20221;-90
2021/05/15 04:42:01;;;;;;;7.07;2.87;;;;;;;;;;4906515;29;20189;-91
2021/05/15 04:45:07;;;;;;;7.07;2.60;;;;;;;;;;4895288;29;20272;-91
2021/05/15 04:48:12;;;;;;;4.50;2.20;;;;;;;;;;4895853;29;20204;-91
2021/05/15 04:51:17;;;;;;;4.03;2.50;;;;;;;;;;4893662;29;20231;-90
2021/05/15 04:54:21;;;;;;;8.03;2.60;;;;;;;;;;4895299;29;20200;-92
2021/05/15 04:57:26;;;;;;;4.80;2.70;;;;;;;;;;4892624;29;20625;-90
2021/05/15 05:00:31;;;;;;;7.63;2.80;;;;;;;;;;4904649;29;20192;-89
2021/05/15 05:03:36;;;;;;;7.00;2.90;;;;;;;;;;4894201;29;20201;-89
2021/05/15 05:06:40;;;;;;;5.17;2.60;;;;;;;;;;4894105;29;20232;-90
2021/05/15 05:09:44;;;;;;;3.53;2.47;;;;;;;;;;4893606;29;20232;-90
2021/05/15 05:12:49;;;;;;;5.37;2.60;;;;;;;;;;4898261;29;20179;-89
2021/05/15 05:15:54;;;;;;;4.10;2.87;;;;;;;;;;4898716;29;20223;-89
2021/05/15 05:18:58;;;;;;;4.77;2.50;;;;;;;;;;4899429;29;20196;-92
2021/05/15 05:22:03;;;;;;;3.53;2.30;;;;;;;;;;4900065;29;20208;-90
2021/05/15 05:25:12;;;;;;;4.53;2.60;;;;;;;;;;4910029;29;20243;-92
2021/05/15 05:28:22;;;;;;;6.17;2.47;;;;;;;;;;4899059;29;20695;-90
2021/05/15 05:31:26;;;;;;;6.80;2.47;;;;;;;;;;4899864;29;20201;-90
2021/05/15 05:34:32;;;;;;;5.43;2.83;;;;;;;;;;4900416;29;20242;-90
2021/05/15 05:37:37;;;;;;;5.67;2.53;;;;;;;;;;4906944;29;20188;-90
2021/05/15 05:40:41;;;;;;;6.63;2.73;;;;;;;;;;4899028;29;20244;-91
2021/05/15 05:43:47;;;;;;;4.88;2.40;;;;;;;;;;4910095;29;20234;-90
2021/05/15 05:46:52;;;;;;;8.23;2.63;;;;;;;;;;4899234;29;20193;-90
2021/05/15 05:49:57;;;;;;;4.23;2.50;;;;;;;;;;4898286;29;20192;-91
2021/05/15 05:53:01;;;;;;;7.97;2.43;;;;;;;;;;4899176;29;20206;-90
2021/05/15 05:56:06;;;;;;;5.13;2.60;;;;;;;;;;4899110;29;20281;-89
2021/05/15 05:59:12;;;;;;;4.78;2.53;;;;;;;;;;4911940;29;20224;-90
2021/05/15 06:02:16;;;;;;;4.45;2.20;;;;;;;;;;4911053;29;20187;-90
2021/05/15 06:05:21;;;;;;;3.72;2.53;;;;;;;;;;4899605;29;20223;-90
2021/05/15 06:08:26;;;;;;;4.68;2.40;;;;;;;;;;4898894;29;20188;-89
2021/05/15 06:11:31;;;;;;;6.50;2.40;;;;;;;;;;4908088;29;20212;-90
2021/05/15 06:14:38;;;;;;;4.15;2.22;;;;;;;;;;4910168;29;20222;-91
2021/05/15 06:17:42;;;;;;;3.72;2.40;;;;;;;;;;4900181;29;20218;-91
2021/05/15 06:20:47;;;;;;;7.28;2.42;;;;;;;;;;4900037;29;20196;-90
2021/05/15 06:23:52;;;;;;;5.03;2.17;;;;;;;;;;4899483;29;20696;-90
2021/05/15 06:26:57;;;;;;;3.35;2.10;;;;;;;;;;4901041;29;20205;-89
2021/05/15 06:30:02;;;;;;;4.45;2.30;;;;;;;;;;4899653;29;20203;-93
2021/05/15 06:33:07;;;;;;;5.20;2.08;;;;;;;;;;4898818;29;20224;-91
2021/05/15 06:36:12;;;;;;;5.20;2.10;;;;;;;;;;4908281;29;20315;-91
2021/05/15 06:39:16;;;;;;;4.22;1.75;;;;;;;;;;4898631;29;20200;-91
2021/05/15 06:42:22;;;;;;;6.55;2.10;;;;;;;;;;4897929;29;20567;-90
2021/05/15 06:45:28;;;;;;;2.63;1.90;;;;;;;;;;4898358;29;20216;-92
2021/05/15 06:48:33;;;;;;;4.28;1.90;;;;;;;;;;4898814;29;20196;-91
2021/05/15 06:51:38;;;;;;;6.45;2.30;;;;;;;;;;4897966;29;20188;-91
2021/05/15 06:54:43;;;;;;;3.80;2.00;;;;;;;;;;4899191;29;20272;-90
2021/05/15 06:57:48;;;;;;;3.25;1.85;;;;;;;;;;4900076;29;20269;-91
2021/05/15 07:00:53;;;;;;;3.88;1.70;;;;;;;;;;4898478;29;20188;-90
2021/05/15 07:03:58;;;;;;;5.90;2.03;;;;;;;;;;4898801;29;20203;-91
2021/05/15 07:07:02;;;;;;;2.70;1.58;;;;;;;;;;4898590;29;20316;-91
2021/05/15 07:10:07;;;;;;;4.45;2.50;;;;;;;;;;4898328;29;20265;-91
2021/05/15 07:13:13;;;;;;;3.38;1.80;;;;;;;;;;4895913;29;20208;-91
2021/05/15 07:16:19;;;;;;;4.70;1.70;;;;;;;;;;4897842;29;20240;-90
2021/05/15 07:19:23;;;;;;;3.95;1.73;;;;;;;;;;4898986;29;20306;-92
2021/05/15 07:22:28;;;;;;;3.10;1.35;;;;;;;;;;4896571;29;20188;-90
2021/05/15 07:25:33;;;;;;;4.55;1.60;;;;;;;;;;4898339;29;20228;-90
2021/05/15 07:28:38;;;;;;;2.13;1.35;;;;;;;;;;4898552;29;20208;-92
2021/05/15 07:31:44;;;;;;;7.10;2.28;;;;;;;;;;4895518;29;20222;-88
2021/05/15 07:34:49;;;;;;;3.85;1.60;;;;;;;;;;4897540;29;20193;-89
2021/05/15 07:37:53;;;;;;;2.70;1.40;;;;;;;;;;4897904;29;20269;-89
2021/05/15 07:40:59;;;;;;;2.47;1.42;;;;;;;;;;4898368;29;20212;-91
2021/05/15 07:44:03;;;;;;;3.70;1.50;;;;;;;;;;4910305;29;20197;-90
2021/05/15 07:47:09;;;;;;;3.90;1.70;;;;;;;;;;4909038;29;20348;-90
2021/05/15 07:50:14;;;;;;;1.75;1.20;;;;;;;;;;4897072;29;20200;-89
2021/05/15 07:53:18;;;;;;;2.80;1.35;;;;;;;;;;4897473;29;20204;-90
2021/05/15 07:56:23;;;;;;;5.13;1.17;;;;;;;;;;4908610;29;20208;-89
2021/05/15 07:59:27;;;;;;;3.17;1.50;;;;;;;;;;4898869;29;20224;-90
2021/05/15 08:02:34;;;;;;;4.30;1.38;;;;;;;;;;4898168;29;20192;-90
2021/05/15 08:05:40;;;;;;;2.13;1.40;;;;;;;;;;4898696;29;20216;-90
2021/05/15 08:08:45;;;;;;;2.55;1.20;;;;;;;;;;4901538;29;20192;-90
2021/05/15 08:11:50;;;;;;;3.95;1.55;;;;;;;;;;4898413;29;20204;-90
2021/05/15 08:14:54;;;;;;;2.08;1.10;;;;;;;;;;4897838;29;20218;-91
2021/05/15 08:18:01;;;;;;;1.98;1.05;;;;;;;;;;4897907;29;20197;-90
2021/05/15 08:21:06;;;;;;;3.53;1.65;;;;;;;;;;4896623;29;20279;-90
2021/05/15 08:24:11;;;;;;;6.13;1.08;;;;;;;;;;4896647;29;20193;-89
2021/05/15 08:27:15;;;;;;;1.88;1.00;;;;;;;;;;4897531;29;20200;-90
2021/05/15 08:30:21;;;;;;;2.63;1.15;;;;;;;;;;4896585;29;20253;-90
2021/05/15 08:33:27;;;;;;;3.38;1.30;;;;;;;;;;4898558;29;20259;-91
2021/05/15 08:36:31;;;;;;;3.30;1.20;;;;;;;;;;4897575;29;20249;-90
2021/05/15 08:39:36;;;;;;;3.55;1.23;;;;;;;;;;4899421;29;20259;-91
2021/05/15 08:42:41;;;;;;;2.97;1.20;;;;;;;;;;4909471;29;20566;-90
2021/05/15 08:45:49;;;;;;;1.77;0.95;;;;;;;;;;4897427;29;20349;-91
2021/05/15 08:48:54;;;;;;;3.67;1.20;;;;;;;;;;4897268;29;20212;-90
2021/05/15 08:51:59;;;;;;;1.20;1.00;;;;;;;;;;4897484;29;20233;-91
2021/05/15 08:55:04;;;;;;;2.33;0.90;;;;;;;;;;4897221;29;20221;-89
2021/05/15 08:58:09;;;;;;;3.08;1.15;;;;;;;;;;4898392;29;20253;-91
2021/05/15 09:01:15;;;;;;;2.10;0.82;;;;;;;;;;4898455;29;20184;-90
2021/05/15 09:04:21;;;;;;;2.40;0.98;;;;;;;;;;4899106;29;20192;-90
2021/05/15 09:07:26;;;;;;;2.92;1.10;;;;;;;;;;4897213;29;20208;-89
2021/05/15 09:10:35;;;;;;;2.47;0.98;;;;;;;;;;4897956;29;20208;-91
2021/05/15 09:13:51;;;;;;;2.92;0.88;;;;;;;;;;4897491;29;20200;-89
2021/05/15 09:16:59;;;;;;;1.95;0.70;;;;;;;;;;4902016;29;20201;-89
2021/05/15 09:20:06;;;;;;;2.25;1.00;;;;;;;;;;4897039;29;20558;-91
2021/05/15 09:23:14;;;;;;;1.98;0.98;;;;;;;;;;4896240;29;20213;-92
2021/05/15 09:26:20;;;;;;;2.35;1.00;;;;;;;;;;4896920;29;20265;-92
2021/05/15 09:29:24;;;;;;;2.72;0.88;;;;;;;;;;4897223;29;20220;-90
2021/05/15 09:32:29;;;;;;;4.22;0.80;;;;;;;;;;4898939;29;20200;-90
2021/05/15 09:35:35;;;;;;;3.85;0.80;;;;;;;;;;4898371;29;20196;-90
2021/05/15 09:38:39;;;;;;;1.15;0.75;;;;;;;;;;4907950;29;20245;-92
2021/05/15 09:41:45;;;;;;;1.15;0.70;;;;;;;;;;4908634;29;20201;-91
2021/05/15 09:44:49;;;;;;;1.83;0.80;;;;;;;;;;4898133;29;20588;-90
2021/05/15 09:47:55;;;;;;;5.63;2.72;;;;;;;;;;4898921;29;20257;-90
2021/05/15 09:51:11;;;;;;;1.30;0.70;;;;;;;;;;4898589;29;20204;-90
2021/05/15 09:54:17;;;;;;;1.35;0.60;;;;;;;;;;4910828;29;20590;-88
2021/05/15 09:57:24;;;;;;;1.30;0.60;;;;;;;;;;4909045;29;20189;-91
2021/05/15 10:00:39;;;;;;;1.20;0.63;;;;;;;;;;4902307;29;20208;-90
2021/05/15 10:03:45;;;;;;;2.83;0.70;;;;;;;;;;4901501;29;20200;-90
2021/05/15 10:06:52;;;;;;;1.60;1.02;;;;;;;;;;4899830;29;20797;-90
2021/05/15 10:10:00;;;;;;;0.75;0.70;;;;;;;;;;4900042;29;20256;-90
2021/05/15 10:13:05;;;;;;;2.90;0.70;;;;;;;;;;4899424;29;20561;-91
2021/05/15 10:16:10;;;;;;;3.40;0.85;;;;;;;;;;4909442;29;20568;-89
2021/05/15 10:19:15;;;;;;;1.90;1.10;;;;;;;;;;4897628;29;20266;-89
2021/05/15 10:22:21;;;;;;;2.35;1.20;;;;;;;;;;4899330;29;20270;-90
2021/05/15 10:25:27;;;;;;;5.50;1.33;;;;;;;;;;4898743;29;20322;-90
2021/05/15 10:28:32;;;;;;;1.98;0.90;;;;;;;;;;4900763;29;20204;-90
2021/05/15 10:31:38;;;;;;;3.20;1.10;;;;;;;;;;4911070;29;20700;-89
2021/05/15 10:34:47;;;;;;;1.48;1.05;;;;;;;;;;4910409;29;20197;-90
2021/05/15 10:38:01;;;;;;;2.22;1.10;;;;;;;;;;4898879;29;20273;-90
2021/05/15 10:41:09;;;;;;;4.05;1.10;;;;;;;;;;4899673;29;20274;-92
2021/05/15 10:44:14;;;;;;;1.98;1.10;;;;;;;;;;4900200;29;20196;-90
2021/05/15 10:47:22;;;;;;;1.70;0.90;;;;;;;;;;4901573;29;20614;-90
2021/05/15 10:50:27;;;;;;;1.90;1.00;;;;;;;;;;4901561;29;20204;-90
2021/05/15 10:53:35;;;;;;;2.47;1.00;;;;;;;;;;4899361;29;20201;-90
2021/05/15 10:56:40;;;;;;;1.60;0.90;;;;;;;;;;4900004;29;20237;-90
2021/05/15 10:59:56;;;;;;;1.50;0.90;;;;;;;;;;4902198;29;20181;-91
2021/05/15 11:03:01;;;;;;;4.03;0.90;;;;;;;;;;4899727;29;20205;-93
2021/05/15 11:06:13;;;;;;;2.15;1.00;;;;;;;;;;4899107;29;20233;-91
2021/05/15 11:09:21;;;;;;;2.05;0.90;;;;;;;;;;4901306;29;20197;-91
2021/05/15 11:12:25;;;;;;;2.97;0.80;;;;;;;;;;4899989;29;20192;-91
2021/05/15 11:15:31;;;;;;;4.25;1.10;;;;;;;;;;4911776;29;20214;-93
2021/05/15 11:18:36;;;;;;;1.83;0.95;;;;;;;;;;4901475;29;20208;-90
2021/05/15 11:21:42;;;;;;;2.60;0.90;;;;;;;;;;4900032;29;20285;-90
2021/05/15 11:24:52;;;;;;;2.38;0.85;;;;;;;;;;4901761;29;20168;-91
2021/05/15 11:27:58;;;;;;;5.65;1.67;;;;;;;;;;4912541;29;20208;-90
2021/05/15 11:31:08;;;;;;;1.38;0.90;;;;;;;;;;4901474;29;20199;-91
2021/05/15 11:34:14;;;;;;;1.40;0.88;;;;;;;;;;4901903;29;20196;-90
2021/05/15 11:37:19;;;;;;;5.13;2.15;;;;;;;;;;4901622;29;20275;-90
2021/05/15 11:40:25;;;;;;;4.47;1.00;;;;;;;;;;4902348;29;20567;-90
2021/05/15 11:43:36;;;;;;;3.10;1.25;;;;;;;;;;4913559;29;20184;-90
2021/05/15 11:46:45;;;;;;;2.13;1.20;;;;;;;;;;4902331;29;20219;-92
2021/05/15 11:49:56;;;;;;;1.88;1.10;;;;;;;;;;4900860;29;20191;-92
2021/05/15 11:53:02;;;;;;;2.70;1.00;;;;;;;;;;4899783;29;20196;-92
2021/05/15 11:56:12;;;;;;;1.70;0.90;;;;;;;;;;4900648;29;20217;-92
2021/05/15 11:59:19;;;;;;;3.35;0.90;;;;;;;;;;4910565;29;20196;-92
2021/05/15 12:02:26;;;;;;;1.90;0.90;;;;;;;;;;4912492;29;20233;-91
2021/05/15 12:05:31;;;;;;;3.35;1.10;;;;;;;;;;4902144;29;20221;-92
2021/05/15 12:08:36;;;;;;;2.67;0.80;;;;;;;;;;4900458;29;20188;-91
2021/05/15 12:11:43;;;;;;;3.13;1.00;;;;;;;;;;4912768;29;20603;-91
2021/05/15 12:14:57;;;;;;;0.90;0.73;;;;;;;;;;4902657;29;20197;-91
2021/05/15 12:18:02;;;;;;;1.23;1.00;;;;;;;;;;4912127;29;20196;-92
2021/05/15 12:21:07;;;;;;;2.28;1.08;;;;;;;;;;4900412;29;20265;-91
2021/05/15 12:24:13;;;;;;;1.95;0.90;;;;;;;;;;4899923;29;20635;-92
2021/05/15 12:27:20;;;;;;;2.53;1.00;;;;;;;;;;4899518;29;20220;-89
2021/05/15 12:30:25;;;;;;;2.88;0.90;;;;;;;;;;4898566;29;20189;-90
2021/05/15 12:33:32;;;;;;;1.50;0.90;;;;;;;;;;4899236;29;20708;-89
2021/05/15 12:36:38;;;;;;;4.80;1.10;;;;;;;;;;4899110;29;20202;-90
2021/05/15 12:39:43;;;;;;;3.00;1.15;;;;;;;;;;4887877;29;20241;-91
2021/05/15 12:42:50;;;;;;;2.83;1.00;;;;;;;;;;4900296;29;20216;-90
2021/05/15 12:45:55;;;;;;;2.88;1.00;;;;;;;;;;4899077;29;20217;-90
2021/05/15 12:49:01;;;;;;;2.05;1.10;;;;;;;;;;4899263;29;20200;-90
2021/05/15 12:52:14;;;;;;;1.52;1.20;;;;;;;;;;4910777;29;20288;-91
2021/05/15 12:55:19;;;;;;;2.65;1.00;;;;;;;;;;4898374;29;20201;-89
2021/05/15 12:58:25;;;;;;;2.78;1.30;;;;;;;;;;4897854;29;20177;-91
2021/05/15 13:01:29;;;;;;;1.90;1.10;;;;;;;;;;4896761;29;20191;-90
2021/05/15 13:04:35;;;;;;;2.55;0.95;;;;;;;;;;4898303;29;20251;-93
2021/05/15 13:07:40;;;;;;;1.60;0.90;;;;;;;;;;4899006;29;20205;-89
2021/05/15 13:10:45;;;;;;;2.20;1.30;;;;;;;;;;4899032;29;20212;-90
2021/05/15 13:14:07;;;;;;;3.22;1.25;;;;;;;;;;4911819;29;20184;-90
2021/05/15 22:00:37;;;;;;;1.10;1.00;;;;;;;;;;5876300;23;20195;-91
2021/05/15 22:03:45;;;;;;;2.93;1.10;;;;;;;;;;4897339;29;20301;-88
2021/05/15 22:06:50;;;;;;;2.07;0.90;;;;;;;;;;4897652;29;20228;-91
2021/05/15 22:09:54;;;;;;;2.63;1.30;;;;;;;;;;4908004;29;20203;-88
2021/05/15 22:13:01;;;;;;;2.73;1.60;;;;;;;;;;4896479;29;20252;-89
2021/05/15 22:16:07;;;;;;;1.50;1.02;;;;;;;;;;4897840;29;20232;-92
2021/05/15 22:19:12;;;;;;;2.30;1.20;;;;;;;;;;4908008;29;20210;-91
2021/05/15 22:22:16;;;;;;;1.35;0.90;;;;;;;;;;4896500;29;20687;-89
2021/05/15 22:25:22;;;;;;;1.90;1.13;;;;;;;;;;4896792;29;20200;-91
2021/05/15 22:28:27;;;;;;;3.40;0.90;;;;;;;;;;4898487;29;20208;-89
2021/05/15 22:31:32;;;;;;;5.97;1.37;;;;;;;;;;4897579;29;20765;-91
2021/05/15 22:34:37;;;;;;;3.43;1.10;;;;;;;;;;4899288;29;20269;-90
2021/05/15 22:37:42;;;;;;;2.75;0.90;;;;;;;;;;4897971;29;20265;-91
2021/05/15 22:40:48;;;;;;;4.30;1.07;;;;;;;;;;4898222;29;20224;-91
2021/05/15 22:43:54;;;;;;;3.08;1.20;;;;;;;;;;4897279;29;20204;-90
2021/05/15 22:46:59;;;;;;;4.05;1.00;;;;;;;;;;4897740;29;20288;-90
2021/05/15 22:50:04;;;;;;;2.13;1.03;;;;;;;;;;4897357;29;20245;-91
2021/05/15 22:53:10;;;;;;;3.42;1.10;;;;;;;;;;4897678;29;20253;-90
2021/05/15 22:56:15;;;;;;;4.28;1.25;;;;;;;;;;4898188;29;20197;-90
2021/05/15 22:59:19;;;;;;;2.97;1.30;;;;;;;;;;4896611;29;20199;-90
2021/05/15 23:02:26;;;;;;;2.13;1.05;;;;;;;;;;4908925;29;20278;-90
2021/05/15 23:05:31;;;;;;;2.00;1.13;;;;;;;;;;4907347;29;20224;-90
2021/05/15 23:08:36;;;;;;;1.20;1.07;;;;;;;;;;4898644;29;20204;-90
2021/05/15 23:11:41;;;;;;;5.10;1.13;;;;;;;;;;4907653;29;20241;-90
2021/05/15 23:14:45;;;;;;;7.23;1.37;;;;;;;;;;4900866;29;20209;-90
2021/05/15 23:17:53;;;;;;;6.73;1.50;;;;;;;;;;4896919;29;20196;-90
2021/05/15 23:20:58;;;;;;;2.47;0.90;;;;;;;;;;4901119;29;20259;-90
2021/05/15 23:24:02;;;;;;;1.25;1.05;;;;;;;;;;4900557;29;20188;-91
2021/05/15 23:27:07;;;;;;;3.10;1.20;;;;;;;;;;4898428;29;20268;-90
2021/05/15 23:30:14;;;;;;;2.60;1.45;;;;;;;;;;4897839;29;20224;-91
2021/05/15 23:33:19;;;;;;;4.53;1.20;;;;;;;;;;4896939;29;20212;-90
2021/05/15 23:36:23;;;;;;;2.63;1.13;;;;;;;;;;4897724;29;20197;-90
2021/05/15 23:39:28;;;;;;;3.17;1.13;;;;;;;;;;4898039;29;20299;-90
2021/05/15 23:42:33;;;;;;;5.20;2.00;;;;;;;;;;4901126;29;20196;-91
2021/05/15 23:45:39;;;;;;;3.50;1.35;;;;;;;;;;4901239;29;20228;-90
2021/05/15 23:48:45;;;;;;;1.95;1.30;;;;;;;;;;4901001;29;20241;-90
2021/05/15 23:51:49;;;;;;;1.63;1.25;;;;;;;;;;4900063;29;20253;-91
2021/05/15 23:54:54;;;;;;;1.70;1.00;;;;;;;;;;4897226;29;20193;-92
2021/05/15 23:58:00;;;;;;;2.10;1.23;;;;;;;;;;4897707;29;20254;-89
